Date,TemperatureHighF,TemperatureAvgF,TemperatureLowF,DewpointHighF,DewpointAvgF,DewpointLowF,HumidityHigh,HumidityAvg,HumidityLow,PressureMaxIn,PressureMinIn,WindSpeedMaxMPH,WindSpeedAvgMPH,GustSpeedMaxMPH,PrecipitationSumIn
2013-1-1,45,33,28,40,31,26,96,92,81,30.54,30.38,5,0,5,0.00
2013-1-2,50,32,24,42,28,22,96,89,68,30.40,30.23,4,0,4,0.00
2013-1-3,49,32,21,41,27,20,95,83,52,30.24,30.11,14,1,14,0.13
2013-1-4,50,42,36,47,40,33,95,93,89,30.34,30.18,7,0,7,0.04
2013-1-5,44,40,36,43,38,35,97,95,92,30.23,30.12,9,1,9,0.22
2013-1-6,46,41,39,42,39,37,96,92,84,30.21,30.02,13,1,13,0.45
2013-1-7,48,43,39,47,42,38,96,95,94,30.19,29.85,13,1,13,1.14
2013-1-8,50,44,39,49,43,38,97,96,94,30.20,29.75,22,3,22,0.47
2013-1-9,50,39,32,48,37,30,95,94,93,29.98,29.68,18,1,18,1.57
2013-1-10,36,33,31,35,32,30,96,96,95,30.14,29.97,4,0,4,0.12
2013-1-11,42,30,23,38,28,21,96,92,80,30.37,30.13,8,0,8,0.00
2013-1-12,40,26,20,36,24,19,95,90,76,30.49,30.35,5,0,5,0.00
2013-1-13,39,27,18,35,24,16,95,90,79,30.53,30.47,5,0,5,0.00
2013-1-14,35,32,29,34,30,27,94,93,92,30.61,30.50,3,0,3,0.02
2013-1-15,46,33,26,41,31,24,96,92,75,30.74,30.60,5,0,5,0.02
2013-1-16,46,30,22,42,28,20,96,90,77,30.73,30.55,4,0,4,0.00
2013-1-17,49,32,24,42,29,22,96,90,77,30.56,30.32,5,0,5,0.00
2013-1-18,45,30,21,41,28,20,95,91,80,30.39,30.29,6,0,6,0.00
2013-1-19,36,31,27,34,29,26,94,93,90,30.43,30.37,3,0,3,0.00
2013-1-20,43,32,25,38,30,23,94,91,82,30.44,30.30,4,0,4,0.00
2013-1-21,38,30,24,35,28,22,94,91,86,30.31,30.16,4,0,4,0.00
2013-1-22,43,31,21,39,29,19,95,92,84,30.20,29.92,4,0,4,0.00
2013-1-23,42,38,33,40,36,31,95,94,91,30.16,29.86,9,0,9,10.76
2013-1-24,48,40,33,45,38,32,96,91,80,30.24,30.07,11,0,11,0.43
2013-1-25,53,44,35,47,41,33,95,90,78,30.08,29.95,11,1,11,0.00
2013-1-26,40,37,35,39,36,33,96,95,94,30.06,29.89,9,0,9,0.88
2013-1-27,42,38,35,40,36,33,96,95,93,30.08,30.01,10,0,10,0.92
2013-1-28,36,34,33,35,33,32,96,95,95,30.11,30.02,4,0,4,1.77
2013-1-29,41,38,34,40,37,33,97,96,94,30.37,30.11,8,0,8,1.45
2013-1-30,49,44,40,48,42,39,96,95,94,30.40,30.35,7,0,7,0.41
2013-1-31,47,44,42,46,42,40,96,95,93,30.41,30.32,7,0,7,0.22
2013-2-1,55,43,32,50,41,30,96,91,76,30.43,30.35,8,0,8,0.04
2013-2-2,51,36,29,47,34,27,97,92,80,30.42,30.27,6,0,6,0.00
2013-2-3,42,37,34,40,35,33,95,94,93,30.32,30.29,6,0,6,0.00
2013-2-4,53,45,41,48,42,40,95,90,78,30.23,29.89,9,0,9,0.04
2013-2-5,51,46,42,46,42,39,92,88,80,29.95,29.85,16,3,16,0.12
2013-2-6,50,45,43,43,40,38,88,83,70,30.07,29.81,14,3,14,0.04
2013-2-7,49,41,29,41,36,27,93,83,70,30.23,29.83,16,2,16,0.20
2013-2-8,47,35,25,42,32,23,95,89,78,30.34,30.22,4,0,4,0.00
2013-2-9,44,39,36,42,37,34,94,92,88,30.37,30.28,1,0,1,0.05
2013-2-10,54,40,30,45,36,29,96,87,70,30.40,30.34,0,0,0,0.00
2013-2-11,46,40,37,42,38,34,93,91,87,30.39,30.35,6,0,6,0.08
2013-2-12,50,45,40,47,42,38,94,91,85,30.43,30.30,10,1,10,0.02
2013-2-13,51,45,40,46,42,38,95,90,80,30.52,30.31,8,0,8,0.08
2013-2-14,54,45,40,47,42,38,94,88,73,30.58,30.51,8,1,8,0.10
2013-2-15,62,44,31,49,39,30,96,84,59,30.58,30.19,7,0,7,0.00
2013-2-16,47,41,32,45,39,30,96,93,88,30.22,30.14,12,0,12,0.61
2013-2-17,46,40,34,42,37,32,94,90,83,30.27,30.14,8,0,8,0.31
2013-2-18,49,38,30,43,35,29,96,88,72,30.14,29.79,8,1,8,0.00
2013-2-19,57,40,29,44,34,26,94,79,51,30.03,29.77,15,0,15,0.00
2013-2-20,46,36,28,41,34,25,95,90,78,30.07,30.02,10,0,10,0.02
2013-2-21,42,39,37,40,37,34,94,92,91,30.10,30.02,9,1,9,0.35
2013-2-22,43,39,33,41,37,32,94,93,89,30.07,29.69,19,3,19,0.61
2013-2-23,47,37,32,44,36,30,96,93,85,30.40,29.92,7,0,7,0.51
2013-2-24,47,41,33,40,37,32,95,86,75,30.41,29.99,15,2,15,0.02
2013-2-25,48,42,39,45,37,32,93,82,60,30.33,29.92,24,2,24,0.24
2013-2-26,49,41,32,42,34,29,94,77,60,30.39,30.22,14,2,14,0.02
2013-2-27,58,44,39,44,38,35,92,79,49,30.33,30.23,10,1,11,0.31
2013-2-28,51,45,39,49,42,36,94,91,88,30.33,30.21,13,2,13,0.49
2013-3-1,57,54,51,50,49,47,93,85,77,30.36,30.29,19,4,19,0.02
2013-3-2,57,49,37,48,43,34,93,81,67,30.29,30.07,18,3,18,0.37
2013-3-3,48,38,29,42,36,27,94,89,72,30.34,30.21,9,0,9,0.16
2013-3-4,60,40,25,43,30,23,95,73,39,30.34,29.96,0,0,0,0.00
2013-3-5,60,45,35,37,33,27,83,64,42,29.97,29.75,0,0,0,0.00
2013-3-6,45,39,33,42,37,30,92,90,83,29.93,29.60,0,0,0,0.51
2013-3-7,50,41,32,45,38,30,92,89,80,30.13,29.93,0,0,0,0.35
2013-3-8,58,40,27,48,34,26,95,82,59,30.27,30.11,0,0,0,0.02
2013-3-9,61,41,27,47,34,24,95,78,48,30.52,30.27,0,0,0,0.00
2013-3-10,52,42,31,45,37,29,94,83,67,30.53,30.45,0,0,0,0.00
2013-3-11,62,47,31,46,39,29,94,76,46,30.48,30.18,0,0,0,0.00
2013-3-12,51,49,46,48,46,41,94,89,83,30.18,30.07,12,2,12,0.81
2013-3-13,54,51,50,51,49,48,94,91,86,30.23,30.10,14,1,14,0.41
2013-3-14,55,50,47,52,48,44,96,91,83,30.17,30.05,12,1,12,0.10
2013-3-15,64,53,47,53,48,44,94,84,64,30.23,30.14,10,1,10,0.06
2013-3-16,51,44,36,45,41,34,93,88,76,30.15,29.89,20,2,20,0.51
2013-3-17,52,42,35,43,36,32,94,81,59,30.22,29.99,11,1,11,0.10
2013-3-18,53,42,32,43,34,28,93,76,42,30.29,30.14,25,1,25,0.41
2013-3-19,60,41,30,45,33,27,94,75,40,30.28,29.62,17,1,17,0.06
2013-3-20,57,46,34,48,41,31,92,83,61,30.04,29.41,30,4,30,0.76
2013-3-21,51,39,34,44,35,32,93,86,68,30.23,30.04,9,1,9,0.20
2013-3-22,51,37,28,41,32,26,92,83,62,30.42,30.22,6,0,8,0.23
2013-3-23,61,40,27,41,30,25,94,72,36,30.45,30.33,8,0,8,0.00
2013-3-24,62,42,26,40,30,24,93,68,31,30.35,30.14,10,1,10,0.00
2013-3-25,70,46,27,42,32,25,92,62,28,30.18,29.95,9,1,9,0.00
2013-3-26,71,48,32,46,36,29,90,66,36,30.04,29.98,8,1,8,0.00
2013-3-27,63,49,38,47,41,35,91,74,53,30.03,29.96,5,0,5,0.00
2013-3-28,70,52,36,52,43,33,93,73,46,30.17,30.02,9,0,9,0.02
2013-3-29,73,52,36,53,42,34,94,72,42,30.28,30.17,3,0,3,0.00
2013-3-30,72,51,33,51,41,31,94,71,37,30.30,30.10,12,1,12,0.00
2013-3-31,66,40,33,53,37,31,93,89,60,30.11,30.04,0,0,0,0.00
2013-4-1,71,52,36,54,44,34,93,76,51,30.16,29.98,8,1,8,0.00
2013-4-2,58,53,46,49,47,42,89,80,71,30.23,30.17,8,1,8,10.22
2013-4-3,73,56,45,53,46,42,92,72,43,30.21,29.96,10,1,10,0.00
2013-4-4,59,52,46,54,48,43,91,87,81,29.97,29.65,12,1,12,0.28
2013-4-5,60,53,48,51,48,44,93,85,67,29.88,29.75,17,3,19,0.78
2013-4-6,56,49,45,47,43,39,90,81,69,29.94,29.71,19,4,19,0.18
2013-4-7,47,43,41,42,39,38,92,87,79,29.91,29.53,8,0,8,0.41
2013-4-8,59,47,41,50,42,38,93,85,64,30.29,29.91,6,0,6,0.22
2013-4-9,61,51,42,48,43,39,91,75,59,30.36,30.20,10,1,10,0.00
2013-4-10,54,50,46,49,45,40,91,81,71,30.28,29.93,15,3,15,0.35
2013-4-11,59,49,43,45,42,38,92,77,51,30.32,30.25,10,1,10,0.25
2013-4-12,52,41,32,44,37,30,94,86,67,30.22,29.71,21,2,21,0.42
2013-4-13,53,41,37,46,38,34,90,86,75,30.02,29.76,11,1,11,0.45
2013-4-14,60,45,37,45,38,34,93,77,47,30.04,29.93,9,1,9,0.11
2013-4-15,58,46,35,44,39,32,91,79,54,30.22,29.96,41,1,41,0.12
2013-4-16,63,45,29,51,36,27,94,73,41,30.43,30.21,10,0,10,0.08
2013-4-17,70,49,32,48,37,29,93,68,35,30.48,30.40,11,1,11,0.00
2013-4-18,53,47,43,44,42,36,91,81,69,30.48,30.24,11,1,11,0.43
2013-4-19,58,50,47,54,48,44,94,90,82,30.24,30.08,8,1,8,0.94
2013-4-20,63,50,46,52,46,43,93,86,64,30.31,30.21,11,0,11,0.38
2013-4-21,56,47,36,50,42,33,92,85,64,30.40,30.25,11,0,11,0.45
2013-4-22,65,47,30,48,35,28,94,68,36,30.54,30.40,12,1,12,0.00
2013-4-23,69,48,30,46,36,27,92,66,30,30.46,30.26,14,1,14,0.00
2013-4-24,76,54,31,50,37,29,93,60,26,30.36,30.09,12,0,12,0.00
2013-4-25,81,57,35,49,41,32,92,59,28,30.16,30.07,10,1,10,0.00
2013-4-26,80,58,38,54,45,36,93,64,35,30.26,30.16,12,1,12,0.00
2013-4-27,57,51,47,47,44,40,90,76,54,30.24,30.17,17,1,17,0.23
2013-4-28,65,53,46,50,46,42,91,78,55,30.24,29.96,10,1,10,0.18
2013-4-29,57,48,41,44,36,28,89,66,38,30.18,29.94,22,4,22,0.12
2013-4-30,60,47,35,45,35,29,86,65,38,30.48,30.18,13,2,13,0.12
2013-5-1,72,50,28,44,35,25,93,62,32,30.61,30.47,12,1,12,0.00
2013-5-2,77,54,35,49,39,32,92,61,30,30.58,30.38,14,1,14,0.00
2013-5-3,76,56,35,52,43,32,93,65,40,30.43,30.24,12,1,12,0.00
2013-5-4,83,60,37,55,44,34,94,61,28,30.28,30.02,16,2,16,0.00
2013-5-5,87,64,40,55,47,37,93,59,28,30.04,29.78,51,1,51,0.00
2013-5-6,94,68,43,56,47,40,93,56,23,29.89,29.76,12,1,12,0.00
2013-5-7,80,61,44,57,49,41,92,69,41,30.03,29.84,10,1,10,0.00
2013-5-8,69,56,44,55,50,42,92,80,60,30.18,30.03,6,0,6,0.00
2013-5-9,78,58,43,59,50,41,94,75,46,30.25,30.13,12,1,12,0.00
2013-5-10,89,64,42,62,51,40,94,67,36,30.23,30.12,57,1,57,0.00
2013-5-11,89,67,49,60,52,46,93,64,34,30.22,29.99,11,1,11,0.00
2013-5-12,74,63,55,61,56,47,90,77,56,30.11,30.01,11,1,11,0.25
2013-5-13,66,58,47,59,52,43,90,81,63,30.22,29.94,22,2,22,0.28
2013-5-14,74,57,45,51,44,39,92,66,35,30.26,30.14,11,1,11,0.00
2013-5-15,79,56,40,51,44,37,92,68,33,30.16,30.02,12,1,12,0.09
2013-5-16,78,61,51,58,51,47,89,72,44,30.04,29.87,14,1,14,0.04
2013-5-17,63,56,52,55,50,48,90,80,64,30.07,29.96,9,1,9,0.12
2013-5-18,66,57,52,52,48,46,84,73,56,30.30,30.07,11,1,11,0.02
2013-5-19,68,56,46,54,49,42,90,79,55,30.43,30.30,6,0,6,0.02
2013-5-20,79,58,40,58,47,38,94,71,40,30.39,29.93,11,1,11,0.00
2013-5-21,60,51,47,51,46,44,89,83,66,29.93,29.80,8,0,8,1.04
2013-5-22,54,49,45,48,45,42,91,86,77,29.96,29.87,7,0,7,0.08
2013-5-23,70,54,41,52,46,39,93,74,50,30.04,29.95,14,1,14,5.30
2013-5-24,68,54,38,52,45,36,94,73,50,30.07,30.00,9,0,9,0.00
2013-5-25,73,58,49,52,47,44,90,70,43,30.08,30.01,9,1,9,0.08
2013-5-26,70,56,47,57,50,44,90,80,59,30.03,29.97,7,0,7,0.21
2013-5-27,66,57,50,57,52,47,92,83,69,29.99,29.74,8,1,8,0.20
2013-5-28,66,58,51,57,51,48,91,79,62,29.91,29.80,12,2,12,0.02
2013-5-29,61,54,49,54,49,46,91,84,74,29.99,29.69,7,0,7,0.33
2013-5-30,66,55,48,53,49,46,92,82,58,30.27,29.99,12,1,12,0.30
2013-5-31,75,59,46,56,48,42,92,71,43,30.36,30.26,9,1,9,0.03
2013-6-1,80,61,44,57,49,41,92,67,39,30.27,30.07,13,1,13,0.00
2013-6-2,74,60,49,56,49,44,89,69,43,30.11,30.05,11,1,11,0.02
2013-6-3,81,62,43,58,50,40,93,68,43,30.14,30.07,12,1,12,5.25
2013-6-4,85,66,44,60,51,41,94,64,36,30.16,30.02,11,1,11,0.00
2013-6-5,84,64,46,59,52,44,92,68,39,30.12,30.04,12,1,12,0.00
2013-6-6,86,66,46,62,50,43,93,61,30,30.09,30.01,12,1,12,0.00
2013-6-7,76,61,48,55,48,43,86,64,39,30.19,30.06,14,2,14,0.00
2013-6-8,75,60,50,53,48,43,84,65,44,30.22,30.12,11,2,11,0.00
2013-6-9,74,59,50,53,46,41,84,64,38,30.14,30.05,13,1,13,0.00
2013-6-10,77,60,42,54,46,38,91,63,40,30.07,29.89,10,1,10,0.00
2013-6-11,70,57,50,53,48,44,88,72,50,30.13,29.95,11,1,11,0.18
2013-6-12,76,60,50,53,48,45,89,68,40,30.17,30.11,10,1,10,0.00
2013-6-13,72,59,52,57,50,46,90,74,50,30.24,30.16,10,0,10,0.20
2013-6-14,73,60,49,53,49,44,87,69,46,30.26,30.08,9,1,9,0.00
2013-6-15,83,64,42,58,51,40,94,67,41,30.09,29.91,12,1,12,0.00
2013-6-16,85,65,48,60,54,46,93,71,40,30.11,30.00,10,0,10,0.04
2013-6-17,86,67,50,60,53,48,92,64,34,30.12,29.89,10,1,10,0.15
2013-6-18,80,65,54,60,52,46,90,65,39,30.01,29.88,10,1,10,0.00
2013-6-19,72,60,53,58,52,47,88,78,54,30.03,29.93,9,0,9,0.30
2013-6-20,57,54,52,54,51,50,91,88,83,30.15,29.98,6,0,6,1.25
2013-6-21,74,60,52,58,53,48,93,77,54,30.19,30.13,7,0,7,0.02
2013-6-22,87,67,47,60,52,45,94,64,32,30.16,29.88,9,0,9,0.00
2013-6-23,74,64,52,62,57,49,92,79,59,29.87,29.60,0,0,0,0.02
2013-6-24,74,63,56,59,57,52,92,80,55,29.73,29.59,11,1,11,0.63
2013-6-25,80,62,53,62,56,50,93,81,51,29.88,29.70,11,1,11,0.80
2013-6-26,77,66,53,64,58,51,93,76,57,30.11,29.87,14,1,14,5.29
2013-6-27,76,66,57,65,59,54,93,81,64,30.22,30.07,10,1,11,0.10
2013-6-28,94,75,57,67,62,55,93,68,38,30.21,30.04,12,0,12,0.00
2013-6-29,93,75,61,70,62,57,92,68,41,30.12,30.01,8,0,8,0.00
2013-6-30,98,78,56,70,63,54,93,65,38,30.04,29.86,10,1,10,0.00
2013-7-1,97,76,59,69,61,54,92,63,39,30.04,29.92,11,1,11,0.00
2013-7-2,85,69,56,61,54,48,88,61,40,30.12,30.04,14,2,14,0.00
2013-7-3,84,66,50,58,50,45,87,60,31,30.19,30.06,12,1,12,0.00
2013-7-4,77,64,53,55,51,45,82,64,45,30.14,30.04,9,1,9,0.00
2013-7-5,80,63,48,58,53,45,93,71,44,30.07,29.96,6,0,6,0.00
2013-7-6,85,66,48,62,54,46,94,68,43,30.01,29.87,9,1,12,0.00
2013-7-7,87,69,51,63,55,48,92,64,40,29.97,29.88,10,1,10,0.00
2013-7-8,87,67,50,63,55,47,93,70,42,30.12,29.96,7,0,9,0.00
2013-7-9,90,69,51,66,55,47,94,65,37,30.14,30.02,15,1,15,0.00
2013-7-10,83,64,50,61,52,46,92,68,43,30.08,29.97,13,1,13,0.00
2013-7-11,74,61,49,54,48,42,79,63,42,30.10,30.02,9,1,10,0.00
2013-7-12,77,60,44,56,49,40,92,69,43,30.13,30.04,8,0,10,0.00
2013-7-13,81,63,42,58,49,40,93,64,37,30.22,30.10,11,1,11,0.00
2013-7-14,88,66,44,61,48,41,93,59,28,30.17,30.01,12,1,12,0.00
2013-7-15,86,66,43,59,49,40,91,59,34,30.09,29.91,15,1,15,0.00
2013-7-16,94,71,48,64,55,45,93,61,31,29.94,29.82,12,1,12,0.00
2013-7-17,75,67,61,60,58,55,90,74,57,30.20,29.89,12,1,12,0.04
2013-7-18,85,68,56,61,56,51,83,66,43,30.25,30.13,11,1,11,0.00
2013-7-19,84,65,49,62,55,47,93,73,46,30.21,30.05,13,2,13,5.24
2013-7-20,82,64,51,63,55,48,92,76,49,30.12,29.97,8,0,8,0.00
2013-7-21,83,64,50,63,56,47,93,77,50,30.01,29.91,7,0,7,0.00
2013-7-22,84,66,53,65,57,50,93,76,49,30.09,29.96,8,1,9,0.00
2013-7-23,89,68,51,65,56,49,94,68,37,30.11,29.97,14,1,14,0.00
2013-7-24,89,68,48,61,52,45,94,63,35,30.09,30.01,12,1,12,0.00
2013-7-25,90,68,46,61,51,43,93,62,29,30.13,30.07,11,1,11,0.00
2013-7-26,93,68,46,61,49,41,93,57,26,30.19,30.09,12,1,12,0.00
2013-7-27,85,65,45,58,50,42,92,61,34,30.19,30.00,11,1,11,0.00
2013-7-28,83,64,46,60,52,43,93,69,41,30.04,29.95,11,1,11,0.00
2013-7-29,82,66,56,60,54,51,84,68,43,30.03,29.95,9,1,10,0.00
2013-7-30,88,68,50,63,55,47,94,67,39,30.16,30.02,8,0,8,0.00
2013-7-31,84,64,51,63,56,49,93,77,48,30.15,29.98,12,1,12,0.00
2013-8-1,67,61,57,58,56,54,90,82,71,30.09,30.05,9,1,9,0.00
2013-8-2,63,60,57,59,56,54,92,87,82,30.16,30.07,7,0,7,0.55
2013-8-3,79,67,58,65,59,56,93,77,55,30.16,30.06,8,1,8,0.00
2013-8-4,86,69,57,65,59,53,89,72,48,30.09,29.95,1,0,1,0.00
2013-8-5,92,71,54,66,58,52,94,67,35,30.04,29.94,0,0,0,0.00
2013-8-6,88,68,48,63,53,46,94,63,31,30.04,29.92,0,0,0,0.00
2013-8-7,93,70,50,62,54,47,94,63,32,30.03,29.95,0,0,0,0.00
2013-8-8,89,69,54,65,55,49,93,66,41,30.07,29.96,0,0,0,0.00
2013-8-9,92,69,50,63,56,47,92,65,38,29.99,29.83,0,0,0,0.00
2013-8-10,92,72,60,68,61,55,92,72,42,30.02,29.87,0,0,0,0.08
2013-8-11,64,60,58,59,56,54,90,86,78,30.09,30.00,0,0,0,0.16
2013-8-12,88,70,55,64,56,51,89,63,42,30.09,30.01,0,0,0,5.24
2013-8-13,90,70,54,62,56,50,90,65,37,30.13,29.94,0,0,0,0.00
2013-8-14,92,69,51,65,57,49,94,70,36,29.98,29.91,0,0,0,0.02
2013-8-15,75,68,62,66,63,59,92,85,70,30.01,29.94,0,0,0,0.13
2013-8-16,92,74,62,69,62,56,94,69,35,30.03,29.95,0,0,0,0.00
2013-8-17,82,67,58,62,58,54,92,74,50,30.10,30.01,1,0,1,0.00
2013-8-18,86,67,55,64,56,52,92,71,42,30.15,30.08,0,0,0,0.00
2013-8-19,87,68,56,62,55,48,89,66,39,30.14,30.07,12,0,12,0.00
2013-8-20,82,64,49,59,51,46,92,66,40,30.20,30.08,14,1,14,0.00
2013-8-21,86,65,45,61,52,42,93,67,38,30.13,29.94,12,1,12,0.00
2013-8-22,92,69,49,65,56,46,93,68,34,29.98,29.81,7,0,7,0.00
2013-8-23,80,67,58,61,57,55,91,72,47,29.92,29.83,12,1,12,0.00
2013-8-24,78,64,55,63,56,50,90,76,51,29.95,29.86,10,0,10,0.16
2013-8-25,82,63,48,62,54,46,93,76,47,29.99,29.87,10,0,10,0.00
2013-8-26,85,67,56,63,57,53,92,74,44,29.98,29.85,12,1,12,0.00
2013-8-27,87,70,58,64,59,55,91,71,39,29.99,29.81,9,0,9,0.02
2013-8-28,89,70,59,68,61,55,93,75,44,29.91,29.84,6,0,6,0.18
2013-8-29,77,67,63,67,62,60,92,86,66,30.03,29.87,8,0,8,1.15
2013-8-30,85,69,56,64,58,52,94,71,37,30.17,30.03,14,1,14,0.00
2013-8-31,86,66,48,62,55,46,93,73,42,30.11,29.86,13,1,13,0.00
2013-9-1,89,69,52,67,58,50,94,72,41,29.91,29.81,9,0,9,0.00
2013-9-2,89,69,54,66,57,51,94,69,40,29.97,29.87,12,0,12,0.00
2013-9-3,76,64,56,66,59,53,93,83,63,30.05,29.96,6,0,6,0.24
2013-9-4,73,63,54,64,59,52,94,86,70,30.07,30.02,7,0,7,0.00
2013-9-5,75,63,57,65,59,55,95,86,68,30.07,29.93,8,0,8,0.35
2013-9-6,77,65,59,67,60,57,94,85,68,30.12,29.96,9,0,9,1.47
2013-9-7,80,66,57,65,60,54,94,80,55,30.13,30.02,9,0,9,0.06
2013-9-8,85,68,55,67,59,53,94,77,49,30.12,30.03,0,0,0,0.00
2013-9-9,84,66,56,68,58,53,94,78,50,30.09,29.99,10,0,10,0.00
2013-9-10,83,66,55,67,59,52,94,81,57,30.03,29.89,9,0,9,0.00
2013-9-11,96,72,52,72,60,51,95,72,32,29.97,29.88,10,0,10,0.00
2013-9-12,88,69,55,67,59,53,94,74,48,30.02,29.91,8,0,8,0.00
2013-9-13,69,62,54,63,58,52,94,87,77,30.01,29.89,3,0,3,0.00
2013-9-14,70,64,61,63,60,58,92,88,77,29.91,29.80,0,0,0,0.00
2013-9-15,70,64,59,64,60,57,93,88,78,29.83,29.72,6,0,6,5.58
2013-9-16,64,61,56,61,58,54,93,91,88,29.96,29.83,7,0,7,0.25
2013-9-17,66,58,54,58,54,52,95,88,74,29.96,29.88,7,0,7,0.02
2013-9-18,74,58,48,58,52,46,95,82,50,30.10,29.96,5,0,6,0.04
2013-9-19,86,61,41,60,49,39,95,71,34,30.08,29.78,6,0,6,0.00
2013-9-20,85,62,44,59,50,42,94,70,35,29.79,29.59,10,0,10,0.12
2013-9-21,78,63,56,60,54,50,92,76,46,29.74,29.66,9,0,9,0.04
2013-9-22,60,58,55,54,52,49,86,82,71,29.75,29.60,19,1,19,0.17
2013-9-23,60,56,50,55,51,48,92,85,80,29.99,29.75,12,1,12,0.57
2013-9-24,67,54,48,56,49,46,94,84,58,30.00,29.85,9,0,9,0.55
2013-9-25,60,52,44,52,48,42,93,86,75,30.07,29.88,6,0,6,0.00
2013-9-26,69,51,39,56,45,37,95,82,55,30.16,30.06,8,0,8,0.00
2013-9-27,55,51,43,51,48,41,94,91,87,30.15,29.86,7,0,7,0.32
2013-9-28,60,54,50,57,52,48,95,92,89,29.87,29.37,24,2,24,0.86
2013-9-29,55,52,50,51,49,47,92,87,77,29.58,29.18,23,3,23,0.51
2013-9-30,59,52,48,54,47,45,88,83,75,29.94,29.43,20,3,20,0.00
2013-10-1,60,51,48,49,45,43,90,79,62,30.14,29.93,16,2,16,0.16
2013-10-2,56,51,48,51,47,45,93,88,79,30.20,30.08,8,0,8,0.31
2013-10-3,63,52,45,54,47,43,94,83,60,30.48,30.20,7,0,7,0.00
2013-10-4,73,53,36,52,44,34,95,77,43,30.52,30.37,0,0,0,0.00
2013-10-5,75,55,42,55,46,39,94,75,35,30.40,30.16,7,0,7,0.00
2013-10-6,83,57,39,60,45,37,95,69,24,30.17,29.89,19,0,19,0.00
2013-10-7,58,53,50,52,49,46,91,85,73,30.05,29.90,12,1,12,0.84
2013-10-8,61,50,38,54,45,35,94,83,56,30.11,29.98,12,0,12,0.32
2013-10-9,64,46,32,50,40,30,95,81,55,30.17,29.98,5,0,5,0.00
2013-10-10,65,51,42,52,45,40,93,82,58,30.10,29.96,0,0,0,0.00
2013-10-11,63,50,39,53,45,38,95,85,65,30.17,30.09,0,0,0,0.00
2013-10-12,62,50,41,52,45,38,95,84,65,30.25,30.09,0,0,0,0.04
2013-10-13,58,46,38,51,42,36,95,86,71,30.40,30.24,0,0,0,0.00
2013-10-14,64,45,32,53,40,30,95,83,57,30.45,30.38,0,0,0,0.00
2013-10-15,67,48,33,54,41,31,95,81,51,30.42,30.20,0,0,0,0.00
2013-10-16,56,48,41,50,44,38,93,87,78,30.23,30.17,0,0,0,0.02
2013-10-17,64,50,40,53,45,38,92,85,64,30.31,30.23,0,0,0,0.00
2013-10-18,67,47,36,56,42,34,95,85,57,30.28,30.16,0,0,0,0.00
2013-10-19,54,45,38,48,42,36,93,89,81,30.23,30.17,0,0,0,0.00
2013-10-20,50,47,43,47,44,42,93,91,86,30.24,30.17,0,0,0,0.00
2013-10-21,52,47,43,49,45,41,94,92,87,30.20,30.12,0,0,0,0.00
2013-10-22,55,48,43,51,46,42,94,92,85,30.15,30.05,0,0,0,0.02
2013-10-23,72,50,39,59,46,37,94,85,60,30.08,29.98,0,0,0,0.00
2013-10-24,67,48,37,55,44,35,94,86,62,30.15,30.03,0,0,0,0.00
2013-10-25,54,48,46,49,45,44,93,89,81,30.34,30.14,0,0,0,0.00
2013-10-26,55,49,46,48,45,43,91,86,76,30.37,30.21,0,0,0,0.00
2013-10-27,57,48,38,50,45,36,93,88,74,30.22,29.90,14,0,14,0.33
2013-10-28,64,44,32,53,35,30,96,75,36,29.99,29.88,12,0,12,0.00
2013-10-29,62,41,28,48,34,26,94,78,46,30.07,29.98,4,0,4,0.00
2013-10-30,61,45,30,49,39,28,94,81,58,30.16,30.06,11,0,11,0.02
2013-10-31,53,50,47,51,47,43,93,90,82,30.29,30.12,8,0,8,0.33
2013-11-1,60,53,48,55,50,46,95,90,80,30.30,29.86,3,0,3,0.02
2013-11-2,51,47,42,49,45,40,94,91,84,29.91,29.50,26,2,26,1.10
2013-11-3,51,40,30,47,37,28,95,91,77,30.15,29.91,7,0,7,0.18
2013-11-4,54,38,27,47,34,25,96,85,64,30.22,30.09,8,0,8,0.04
2013-11-5,50,44,40,48,42,37,94,92,86,30.29,30.04,9,0,9,0.02
2013-11-6,56,46,38,50,43,37,96,90,77,30.35,30.05,6,0,6,0.09
2013-11-7,50,48,46,49,46,44,95,93,88,30.04,29.72,20,2,20,0.63
2013-11-8,60,47,42,52,44,39,96,88,68,30.19,29.99,10,0,10,0.34
2013-11-9,54,44,34,48,41,32,95,90,79,30.19,30.08,5,0,5,0.05
2013-11-10,49,46,43,47,44,41,95,94,91,30.18,30.11,3,0,3,0.10
2013-11-11,59,45,38,54,43,37,96,93,82,30.20,30.02,2,0,2,0.00
2013-11-12,57,50,40,56,48,39,97,93,89,30.39,30.05,12,0,12,0.08
2013-11-13,62,53,48,54,48,45,94,85,67,30.45,30.33,9,0,9,0.00
2013-11-14,51,46,41,48,44,39,95,93,90,30.33,30.09,6,0,6,0.22
2013-11-15,45,43,42,44,42,40,95,94,91,30.10,29.37,10,1,10,1.06
2013-11-16,48,40,35,45,38,34,95,93,86,29.81,29.39,8,0,8,0.68
2013-11-17,48,44,35,46,42,34,96,93,89,29.94,29.81,14,1,14,0.02
2013-11-18,50,48,47,48,46,44,95,92,89,29.94,29.59,58,1,58,0.34
2013-11-19,51,42,32,50,39,26,95,86,70,30.12,29.56,14,1,14,0.27
2013-11-20,44,31,24,37,26,22,94,84,59,30.56,30.12,8,0,10,0.00
2013-11-21,45,29,20,35,24,17,94,84,54,30.70,30.55,6,0,6,0.00
2013-11-22,48,30,20,39,25,18,94,82,49,30.69,30.49,11,0,11,0.00
2013-11-23,49,32,23,42,28,21,95,86,66,30.49,30.23,6,0,6,0.00
2013-11-24,53,35,25,44,31,23,95,86,65,30.29,30.19,4,0,4,0.02
2013-11-25,55,37,27,45,33,25,95,86,64,30.34,30.28,3,0,3,0.00
2013-11-26,58,39,26,48,34,24,96,85,57,30.30,30.13,3,0,3,0.00
2013-11-27,57,41,30,47,37,28,94,87,69,30.13,29.97,1,0,1,0.12
2013-11-28,58,38,28,48,34,26,96,86,56,30.21,30.05,4,0,4,0.00
2013-11-29,49,43,35,45,40,33,94,90,82,30.35,30.20,2,0,2,0.00
2013-11-30,49,46,44,46,44,42,94,92,88,30.35,30.10,9,0,9,0.21
2013-12-1,50,48,39,49,46,37,96,94,90,30.11,29.76,14,1,14,1.10
2013-12-2,40,36,33,38,34,32,94,92,90,30.08,29.83,10,0,10,0.12
2013-12-3,40,31,26,37,29,24,96,93,88,30.35,30.08,2,0,2,0.02
2013-12-4,41,27,20,36,24,18,96,89,71,30.38,30.32,5,0,5,0.00
2013-12-5,35,24,17,33,21,15,95,91,85,30.36,30.23,2,0,2,0.00
2013-12-6,36,21,13,26,15,9,93,79,49,30.30,30.18,10,0,10,0.00
2013-12-7,33,16,8,20,10,5,90,76,48,30.47,30.29,8,0,8,0.00
2013-12-8,36,21,10,25,14,6,89,78,53,30.62,30.46,0,0,0,0.00
2013-12-9,34,25,13,28,22,10,89,86,79,30.64,30.51,2,0,2,0.00
2013-12-10,38,32,29,34,30,26,92,90,85,30.53,30.44,3,0,3,0.00
2013-12-11,45,32,25,38,28,23,95,88,71,30.45,30.19,5,0,5,0.00
2013-12-12,42,34,26,38,32,25,95,92,86,30.19,30.07,9,0,9,0.10
2013-12-13,47,42,39,46,40,37,96,94,93,30.45,30.16,4,0,4,0.14
2013-12-14,47,43,38,46,42,37,96,94,92,30.47,30.35,7,0,7,0.02
2013-12-15,49,46,41,48,44,40,96,95,93,30.50,30.36,8,0,8,0.17
2013-12-16,50,37,29,48,36,28,97,94,89,30.54,30.30,4,0,4,0.00
2013-12-17,41,35,29,40,34,27,97,95,94,30.30,30.14,4,0,4,0.02
2013-12-18,44,36,25,43,35,24,97,94,84,30.19,30.05,6,0,6,0.00
2013-12-19,38,28,20,36,26,19,96,93,90,30.38,30.18,3,0,3,0.00
2013-12-20,35,33,28,34,31,27,96,95,94,30.23,29.75,8,0,8,0.02
2013-12-21,42,36,33,40,35,32,97,96,94,30.20,29.87,5,0,5,0.24
2013-12-22,46,42,36,45,41,35,97,96,96,30.32,30.19,6,0,6,0.84
2013-12-23,49,46,38,48,44,36,97,93,84,30.55,30.14,19,1,19,0.55
2013-12-24,38,37,36,37,36,35,95,94,94,30.59,30.55,0,0,0,0.02
2013-12-25,48,36,25,44,33,23,97,92,82,30.55,30.42,4,0,4,5.24
2013-12-26,53,39,29,46,36,27,96,90,73,30.43,30.23,2,0,2,0.00
2013-12-27,41,35,29,40,34,27,96,95,93,30.40,30.12,4,0,4,0.04
2013-12-28,47,41,39,45,40,38,97,95,93,30.56,30.39,3,0,3,0.00
2013-12-29,43,39,36,42,38,35,96,95,94,30.51,30.34,6,0,6,0.02
2013-12-30,44,39,34,43,38,33,97,96,95,30.35,30.14,10,0,10,0.04
2013-12-31,47,43,39,46,42,38,97,96,95,30.42,30.22,9,0,9,0.04
2014-1-1,46,38,30,44,37,29,97,96,94,30.46,30.27,3,0,3,0.00
2014-1-2,47,43,39,46,42,38,97,95,92,30.27,29.92,14,1,14,0.72